createdAt,value
2023-11-03T00:01:35.866Z,3.65
2023-11-03T00:04:40.301Z,3.08
2023-11-03T00:07:42.608Z,3.80
2023-11-03T00:10:45.099Z,3.58
2023-11-03T00:13:46.755Z,3.55
2023-11-03T00:16:48.423Z,3.90
2023-11-03T00:19:50.167Z,4.20
2023-11-03T00:22:51.932Z,3.40
2023-11-03T00:25:53.573Z,3.55
2023-11-03T00:28:55.287Z,3.45
2023-11-03T00:31:57.200Z,3.97
2023-11-03T00:34:58.879Z,3.47
2023-11-03T00:38:01.463Z,3.60
2023-11-03T00:41:03.319Z,3.53
2023-11-03T00:44:05.230Z,3.22
2023-11-03T00:47:07.314Z,3.45
2023-11-03T00:50:10.702Z,3.70
2023-11-03T00:53:12.434Z,3.28
2023-11-03T00:56:15.151Z,3.30
2023-11-03T00:59:18.271Z,3.30
2023-11-03T01:02:20.095Z,3.00
2023-11-03T01:05:23.459Z,3.53
2023-11-03T01:08:25.196Z,3.00
2023-11-03T01:11:27.832Z,3.30
2023-11-03T01:14:34.029Z,3.20
2023-11-03T01:17:36.733Z,3.20
2023-11-03T01:20:38.644Z,3.75
2023-11-03T01:23:44.176Z,3.60
2023-11-03T01:26:45.959Z,3.30
2023-11-03T01:29:47.628Z,2.80
2023-11-03T01:32:49.535Z,2.80
2023-11-03T01:35:51.254Z,3.33
2023-11-03T01:38:53.179Z,3.12
2023-11-03T01:41:54.837Z,2.87
2023-11-03T01:44:56.755Z,3.20
2023-11-03T01:47:58.716Z,2.70
2023-11-03T01:51:02.507Z,2.95
2023-11-03T01:54:05.864Z,3.28
2023-11-03T01:57:07.581Z,2.92
2023-11-03T02:00:14.572Z,2.83
2023-11-03T02:03:16.553Z,3.40
2023-11-03T02:06:18.325Z,3.50
2023-11-03T02:09:20.503Z,3.00
2023-11-03T02:12:22.456Z,2.90
2023-11-03T02:15:24.407Z,3.10
2023-11-03T02:18:26.461Z,3.20
2023-11-03T02:21:28.440Z,3.08
2023-11-03T02:24:30.162Z,3.03
2023-11-03T02:27:31.993Z,3.35
2023-11-03T02:30:33.676Z,3.30
2023-11-03T02:33:35.339Z,3.67
2023-11-03T02:36:37.332Z,2.90
2023-11-03T02:39:41.560Z,3.75
2023-11-03T02:42:43.346Z,2.80
2023-11-03T02:45:45.123Z,3.08
2023-11-03T02:48:47.015Z,2.90
2023-11-03T02:51:48.791Z,3.17
2023-11-03T02:54:50.489Z,2.95
2023-11-03T02:57:52.177Z,3.03
2023-11-03T03:00:54.567Z,3.58
2023-11-03T03:03:56.417Z,3.55
2023-11-03T03:06:58.197Z,2.90
2023-11-03T03:09:59.900Z,2.97
2023-11-03T03:13:03.890Z,3.58
2023-11-03T03:16:06.201Z,3.05
2023-11-03T03:19:07.890Z,3.30
2023-11-03T03:22:09.633Z,3.33
2023-11-03T03:25:11.423Z,3.20
2023-11-03T03:28:13.258Z,3.05
2023-11-03T03:31:14.992Z,2.90
2023-11-03T03:34:16.991Z,4.30
2023-11-03T03:37:18.762Z,3.00
2023-11-03T03:40:20.427Z,3.28
2023-11-03T03:43:22.150Z,3.15
2023-11-03T03:46:23.860Z,3.33
2023-11-03T03:49:25.574Z,3.30
2023-11-03T03:52:27.249Z,3.60
2023-11-03T03:55:28.889Z,3.33
2023-11-03T03:58:30.680Z,3.33
2023-11-03T04:01:32.402Z,3.08
2023-11-03T04:04:34.288Z,3.60
2023-11-03T04:07:36.129Z,3.85
2023-11-03T04:10:37.918Z,3.58
2023-11-03T04:13:39.891Z,3.17
2023-11-03T04:16:41.578Z,3.70
2023-11-03T04:19:43.252Z,3.22
2023-11-03T04:22:45.031Z,3.10
2023-11-03T04:25:46.916Z,3.50
2023-11-03T04:28:48.713Z,3.40
2023-11-03T04:31:50.891Z,3.17
2023-11-03T04:34:52.709Z,4.15
2023-11-03T04:37:55.439Z,4.32
2023-11-03T04:40:57.152Z,3.28
2023-11-03T04:43:58.877Z,3.17
2023-11-03T04:47:00.613Z,3.58
2023-11-03T04:50:02.526Z,3.60
2023-11-03T04:53:04.377Z,3.12
2023-11-03T04:56:06.527Z,3.83
2023-11-03T04:59:09.144Z,3.47
2023-11-03T05:02:11.241Z,3.22
2023-11-03T05:05:12.936Z,3.10
2023-11-03T05:08:14.702Z,3.42
2023-11-03T05:11:16.421Z,3.22
2023-11-03T05:14:18.086Z,3.08
2023-11-03T05:17:19.769Z,3.42
2023-11-03T05:20:21.799Z,3.12
2023-11-03T05:23:23.493Z,8.10
2023-11-03T05:26:25.632Z,3.70
2023-11-03T05:29:28.252Z,3.42
2023-11-03T05:32:30.285Z,5.10
2023-11-03T05:35:31.969Z,3.35
2023-11-03T05:38:34.738Z,2.80
2023-11-03T05:41:36.830Z,3.33
2023-11-03T05:44:38.524Z,3.53
2023-11-03T05:47:40.277Z,3.20
2023-11-03T05:50:42.002Z,3.50
2023-11-03T05:53:43.758Z,3.12
2023-11-03T05:56:45.608Z,3.10
2023-11-03T05:59:47.328Z,3.37
2023-11-03T06:02:50.038Z,3.40
2023-11-03T06:05:51.928Z,5.18
2023-11-03T06:08:54.209Z,3.87
2023-11-03T06:11:55.911Z,3.42
2023-11-03T06:14:57.586Z,3.65
2023-11-03T06:17:59.352Z,4.03
2023-11-03T06:21:01.206Z,4.25
2023-11-03T06:24:02.977Z,3.60
2023-11-03T06:27:04.737Z,3.20
2023-11-03T06:30:07.939Z,3.90
2023-11-03T06:33:09.939Z,3.92
2023-11-03T06:36:11.762Z,3.95
2023-11-03T06:39:13.554Z,3.97
2023-11-03T06:42:15.390Z,3.42
2023-11-03T06:45:17.527Z,3.60
2023-11-03T06:48:19.253Z,4.10
2023-11-03T06:51:21.183Z,3.35
2023-11-03T06:54:23.068Z,4.12
2023-11-03T06:57:24.930Z,3.28
2023-11-03T07:00:26.705Z,3.30
2023-11-03T07:03:28.616Z,3.75
2023-11-03T07:06:30.838Z,3.97
2023-11-03T07:09:33.383Z,3.05
2023-11-03T07:12:35.102Z,3.65
2023-11-03T07:15:37.798Z,3.12
2023-11-03T07:18:40.182Z,3.85
2023-11-03T07:21:41.905Z,4.78
2023-11-03T07:24:46.412Z,3.62
2023-11-03T07:27:48.521Z,4.57
2023-11-03T07:30:51.783Z,3.40
2023-11-03T07:33:55.647Z,4.12
2023-11-03T07:36:58.693Z,4.10
2023-11-03T07:40:00.804Z,4.40
2023-11-03T07:43:02.615Z,3.62
2023-11-03T07:46:04.679Z,3.92
2023-11-03T07:49:06.561Z,3.67
2023-11-03T07:52:08.351Z,4.43
2023-11-03T07:55:12.997Z,4.50
2023-11-03T07:58:15.165Z,3.62
2023-11-03T08:01:17.473Z,4.40
2023-11-03T08:04:19.274Z,4.72
2023-11-03T08:07:21.033Z,4.87
2023-11-03T08:10:22.818Z,5.10
2023-11-03T08:13:28.462Z,4.07
2023-11-03T08:16:30.204Z,3.80
2023-11-03T08:19:32.011Z,4.43
2023-11-03T08:22:34.363Z,5.25
2023-11-03T08:25:36.275Z,4.00
2023-11-03T08:28:38.284Z,4.25
2023-11-03T08:31:40.020Z,4.30
2023-11-03T08:34:41.870Z,3.72
2023-11-03T08:37:43.815Z,5.18
2023-11-03T08:40:46.867Z,4.72
2023-11-03T08:43:49.140Z,4.20
2023-11-03T08:46:52.042Z,19.37
2023-11-03T08:49:55.329Z,28.83
2023-11-03T08:52:57.720Z,12.23
2023-11-03T08:56:02.087Z,7.78
2023-11-03T08:59:05.147Z,6.45
2023-11-03T09:02:07.840Z,8.18
2023-11-03T09:05:12.520Z,9.02
2023-11-03T09:08:16.121Z,5.12
2023-11-03T09:11:18.778Z,9.73
2023-11-03T09:14:21.606Z,16.60
2023-11-03T09:17:24.436Z,7.60
2023-11-03T09:20:27.451Z,9.55
2023-11-03T09:23:30.315Z,10.82
2023-11-03T09:26:32.059Z,12.27
2023-11-03T09:29:33.659Z,6.00
2023-11-03T09:32:36.270Z,5.95
2023-11-03T09:35:38.081Z,4.95
2023-11-03T09:38:40.127Z,4.50
2023-11-03T09:41:58.848Z,3.50
2023-11-03T09:45:00.837Z,3.58
2023-11-03T09:48:05.686Z,3.70
2023-11-03T09:51:08.158Z,3.78
2023-11-03T09:54:10.144Z,3.92
2023-11-03T09:57:13.326Z,4.25
2023-11-03T10:00:20.662Z,4.55
2023-11-03T10:03:22.320Z,4.45
2023-11-03T10:06:24.360Z,4.18
2023-11-03T10:09:25.997Z,5.43
2023-11-03T10:12:28.062Z,28.17
2023-11-03T10:15:31.043Z,5.97
2023-11-03T10:18:32.737Z,5.10
2023-11-03T10:21:34.359Z,5.20
2023-11-03T10:24:37.430Z,5.00
2023-11-03T10:27:39.954Z,5.87
2023-11-03T10:30:42.517Z,5.72
2023-11-03T10:33:45.267Z,5.87
2023-11-03T10:36:52.597Z,5.70
2023-11-03T10:39:55.058Z,6.72
2023-11-03T10:42:59.615Z,5.70
2023-11-03T10:46:12.240Z,5.50
2023-11-03T10:49:34.052Z,6.05
2023-11-03T10:52:50.600Z,7.65
2023-11-03T10:56:22.237Z,6.00
2023-11-03T10:59:34.564Z,6.20
2023-11-03T11:03:11.292Z,7.57
2023-11-03T11:06:21.864Z,18.98
2023-11-03T11:09:38.245Z,8.27
2023-11-03T11:12:48.566Z,11.38
2023-11-03T11:16:04.062Z,14.90
2023-11-03T11:19:11.635Z,13.90
2023-11-03T11:22:20.361Z,17.45
2023-11-03T11:25:22.191Z,9.00
2023-11-03T11:28:36.732Z,9.52
2023-11-03T11:31:39.127Z,7.22
2023-11-03T11:34:42.771Z,5.35
2023-11-03T11:37:45.244Z,9.15
2023-11-03T11:40:47.546Z,8.68
2023-11-03T11:43:50.371Z,7.80
2023-11-03T11:46:57.550Z,7.10
2023-11-03T11:50:00.953Z,8.98
2023-11-03T11:53:02.674Z,8.00
2023-11-03T11:56:07.023Z,6.25
2023-11-03T11:59:10.670Z,6.53
2023-11-03T12:02:12.603Z,6.00
2023-11-03T12:05:18.242Z,6.62
2023-11-03T12:08:19.975Z,7.60
2023-11-03T12:11:22.015Z,7.45
2023-11-03T12:14:24.665Z,8.93
2023-11-03T12:17:26.623Z,8.52
2023-11-03T12:20:28.481Z,11.15
2023-11-03T12:23:33.505Z,7.47
2023-11-03T12:26:35.833Z,6.97
2023-11-03T12:29:37.707Z,7.75
2023-11-03T12:32:39.761Z,8.15
2023-11-03T12:35:44.442Z,7.03
2023-11-03T12:38:48.149Z,6.22
2023-11-03T12:42:11.176Z,4.60
2023-11-03T12:45:13.170Z,4.05
2023-11-03T12:48:21.760Z,3.60
2023-11-03T12:51:31.447Z,4.28
2023-11-03T12:54:33.479Z,3.90
2023-11-03T12:57:43.167Z,3.92
2023-11-03T13:00:50.334Z,4.68
2023-11-03T13:03:53.302Z,9.48
2023-11-03T13:06:58.843Z,5.53
2023-11-03T13:10:00.815Z,4.57
2023-11-03T13:13:04.294Z,4.37
2023-11-03T13:16:07.056Z,3.20
2023-11-03T13:19:09.266Z,4.00
2023-11-03T13:22:12.562Z,4.00
2023-11-03T13:25:14.548Z,3.55
2023-11-03T13:28:16.778Z,4.07
2023-11-03T13:31:18.975Z,3.33
2023-11-03T13:34:21.775Z,3.03
2023-11-03T13:37:23.473Z,3.05
2023-11-03T13:40:29.424Z,3.22
2023-11-03T13:43:31.841Z,3.40
2023-11-03T13:46:34.013Z,4.25
2023-11-03T13:49:36.927Z,3.25
2023-11-03T13:52:38.767Z,3.97
2023-11-03T13:55:40.600Z,4.47
2023-11-03T15:17:59.703Z,18.40
2023-11-03T15:21:02.806Z,2.75
2023-11-03T15:24:04.474Z,8.23
2023-11-03T15:27:06.171Z,3.05
2023-11-03T15:30:08.200Z,11.77
2023-11-03T15:33:12.148Z,7.68
2023-11-03T15:36:13.779Z,6.90
2023-11-03T15:39:33.660Z,1.37
2023-11-03T15:42:35.176Z,1.10
2023-11-03T15:45:36.694Z,1.77
2023-11-03T15:48:39.795Z,2.15
2023-11-03T15:51:43.508Z,1.37
2023-11-03T15:54:45.711Z,1.80
2023-11-03T15:57:52.399Z,1.30
2023-11-03T16:00:55.842Z,1.33
2023-11-03T16:03:58.175Z,1.17
2023-11-03T16:06:59.800Z,2.45
2023-11-03T16:10:01.629Z,1.80
2023-11-03T16:13:04.450Z,1.30
2023-11-03T16:16:07.040Z,1.65
2023-11-03T16:19:14.147Z,2.17
2023-11-03T16:22:16.281Z,1.60
2023-11-03T16:25:18.003Z,1.98
2023-11-03T16:28:19.688Z,3.72
2023-11-03T16:31:22.395Z,2.65
2023-11-03T16:34:24.211Z,1.90
2023-11-03T16:37:25.895Z,1.92
2023-11-03T16:40:27.748Z,2.05
2023-11-03T16:43:29.314Z,1.75
2023-11-03T16:46:30.933Z,1.25
2023-11-03T16:49:32.598Z,1.60
2023-11-03T16:52:36.901Z,1.50
2023-11-03T16:55:38.991Z,1.40
2023-11-03T16:58:41.173Z,1.58
2023-11-03T17:01:42.928Z,1.62
2023-11-03T17:04:46.766Z,1.40
2023-11-03T17:07:48.440Z,1.55
2023-11-03T17:10:51.648Z,1.60
2023-11-03T17:13:53.409Z,1.73
2023-11-03T17:16:54.961Z,1.58
2023-11-03T17:19:56.930Z,2.10
2023-11-03T17:23:01.259Z,1.62
2023-11-03T17:26:04.482Z,1.98
2023-11-03T17:29:09.572Z,1.92
2023-11-03T17:32:13.154Z,1.80
2023-11-03T17:35:21.861Z,2.10
2023-11-03T17:38:23.721Z,2.15
2023-11-03T17:41:26.973Z,3.17
2023-11-03T17:44:29.723Z,2.90
2023-11-03T17:47:31.513Z,1.95
2023-11-03T17:50:33.716Z,2.10
2023-11-03T17:53:35.637Z,2.42
2023-11-03T17:56:37.740Z,2.40
2023-11-03T17:59:40.246Z,2.72
2023-11-03T18:02:44.203Z,2.50
2023-11-03T18:05:46.791Z,2.72
2023-11-03T18:08:50.291Z,4.20
2023-11-03T18:11:53.587Z,1.85
2023-11-03T18:14:57.725Z,1.85
2023-11-03T18:17:59.844Z,2.53
2023-11-03T18:21:01.640Z,2.22
2023-11-03T18:24:06.137Z,1.67
2023-11-03T18:27:08.213Z,1.90
2023-11-03T18:30:13.489Z,2.35
2023-11-03T18:33:16.393Z,1.80
2023-11-03T18:36:19.122Z,1.80
2023-11-03T18:39:22.448Z,2.17
2023-11-03T18:42:27.088Z,2.03
2023-11-03T18:45:30.639Z,2.00
2023-11-03T18:48:32.935Z,2.30
2023-11-03T18:51:35.631Z,2.40
2023-11-03T18:58:24.628Z,2.80
2023-11-03T19:04:59.717Z,2.50
2023-11-03T19:07:38.287Z,2.60
2023-11-03T19:10:42.509Z,2.70
2023-11-03T19:13:45.103Z,2.47
2023-11-03T19:16:47.198Z,2.78
2023-11-03T19:19:49.538Z,2.55
2023-11-03T19:22:52.238Z,2.72
2023-11-03T19:25:54.663Z,2.10
2023-11-03T19:28:57.193Z,2.20
2023-11-03T19:32:00.413Z,2.03
2023-11-03T19:35:02.676Z,1.87
2023-11-03T19:38:04.983Z,1.60
2023-11-03T19:41:08.553Z,2.12
2023-11-03T19:44:11.261Z,1.50
2023-11-03T19:47:13.103Z,1.83
2023-11-03T19:50:16.912Z,1.58
2023-11-03T19:53:23.568Z,1.50
2023-11-03T19:56:25.741Z,1.40
2023-11-03T19:59:30.920Z,1.70
2023-11-03T20:02:35.460Z,1.62
2023-11-03T20:05:37.428Z,1.75
2023-11-03T20:08:39.773Z,2.15
2023-11-03T20:11:42.135Z,1.60
2023-11-03T20:14:44.842Z,3.20
2023-11-03T20:17:47.305Z,2.08
2023-11-03T20:20:54.181Z,1.60
2023-11-03T20:23:56.245Z,2.17
2023-11-03T20:26:58.583Z,2.00
2023-11-03T20:30:00.495Z,3.15
2023-11-03T20:33:02.131Z,2.62
2023-11-03T20:36:04.778Z,3.33
2023-11-03T20:39:12.679Z,3.10
2023-11-03T20:42:15.788Z,2.92
2023-11-03T20:45:18.381Z,2.58
2023-11-03T20:48:20.988Z,2.60
2023-11-03T20:51:23.203Z,2.40
2023-11-03T20:54:26.996Z,2.58
2023-11-03T20:57:29.367Z,3.08
2023-11-03T21:00:32.073Z,3.35
2023-11-03T21:03:34.954Z,3.40
2023-11-03T21:06:37.211Z,3.37
2023-11-03T21:09:39.730Z,3.30
2023-11-03T21:12:41.656Z,3.30
2023-11-03T21:15:43.946Z,3.40
2023-11-03T21:18:45.692Z,3.95
2023-11-03T21:21:47.384Z,3.53
2023-11-03T21:24:48.999Z,3.83
2023-11-03T21:27:50.784Z,4.00
2023-11-03T21:30:53.699Z,3.17
2023-11-03T21:33:55.444Z,3.50
2023-11-03T21:36:57.150Z,3.50
2023-11-03T21:39:58.997Z,3.80
2023-11-03T21:43:00.675Z,3.87
2023-11-03T21:46:02.408Z,3.60
2023-11-03T21:49:04.297Z,3.83
2023-11-03T21:52:08.746Z,3.45
2023-11-03T21:55:10.387Z,5.15
2023-11-03T21:58:11.925Z,6.57
2023-11-03T22:01:13.779Z,6.85
2023-11-03T22:04:16.274Z,6.78
2023-11-03T22:07:17.875Z,6.45
2023-11-03T22:10:20.080Z,6.55
2023-11-03T22:13:21.598Z,5.35
2023-11-03T22:16:25.559Z,4.82
2023-11-03T22:19:27.416Z,4.70
2023-11-03T22:22:29.079Z,3.87
2023-11-03T22:25:30.649Z,4.03
2023-11-03T22:28:32.148Z,3.62
2023-11-03T22:31:43.694Z,3.35
2023-11-03T22:34:45.289Z,3.47
2023-11-03T22:37:46.822Z,2.90
2023-11-03T22:40:48.345Z,3.15
2023-11-03T22:43:50.030Z,3.67
2023-11-03T22:46:51.604Z,3.25
2023-11-03T22:49:53.194Z,3.40
2023-11-03T22:52:54.751Z,3.28
2023-11-03T22:55:56.923Z,4.43
2023-11-03T22:58:58.676Z,3.70
2023-11-03T23:02:00.261Z,4.30
2023-11-03T23:05:01.789Z,3.97
2023-11-03T23:08:03.489Z,3.60
2023-11-03T23:11:05.233Z,3.85
2023-11-03T23:14:06.779Z,4.35
2023-11-03T23:17:08.463Z,4.00
2023-11-03T23:20:13.481Z,4.18
2023-11-03T23:23:15.168Z,5.10
2023-11-03T23:26:17.774Z,5.35
2023-11-03T23:29:19.393Z,5.53
2023-11-03T23:32:20.902Z,6.07
2023-11-03T23:35:22.844Z,6.47
2023-11-03T23:38:26.038Z,6.50
2023-11-03T23:41:27.577Z,6.07
2023-11-03T23:44:29.221Z,4.50
2023-11-03T23:47:30.749Z,4.07
2023-11-03T23:50:32.291Z,4.18
2023-11-03T23:53:33.805Z,4.55
2023-11-03T23:56:35.352Z,3.95
2023-11-03T23:59:36.898Z,3.78
